createdAt,value
2018-12-05T00:00:35.519Z,88.70
2018-12-05T00:03:05.125Z,67.77
2018-12-05T00:05:34.575Z,54.40
2018-12-05T00:08:03.911Z,67.07
2018-12-05T00:10:33.397Z,63.37
2018-12-05T00:13:02.842Z,61.93
2018-12-05T00:15:32.351Z,71.73
2018-12-05T00:18:01.881Z,69.87
2018-12-05T00:20:31.331Z,62.30
2018-12-05T00:23:00.870Z,72.03
2018-12-05T00:25:30.392Z,80.23
2018-12-05T00:27:59.800Z,73.77
2018-12-05T00:30:29.242Z,80.77
2018-12-05T00:32:58.769Z,77.47
2018-12-05T00:35:28.323Z,73.10
2018-12-05T00:37:57.819Z,76.73
2018-12-05T00:40:27.273Z,89.33
2018-12-05T00:42:56.804Z,94.90
2018-12-05T00:45:26.327Z,89.67
2018-12-05T00:47:55.724Z,77.13
2018-12-05T00:50:25.156Z,82.80
2018-12-05T00:52:54.711Z,94.70
2018-12-05T00:55:24.216Z,131.60
2018-12-05T00:57:53.655Z,96.93
2018-12-05T01:00:23.065Z,122.40
2018-12-05T01:02:52.484Z,92.53
2018-12-05T01:05:22.030Z,102.90
2018-12-05T01:07:51.471Z,126.57
2018-12-05T01:10:20.859Z,129.43
2018-12-05T01:12:50.284Z,116.77
2018-12-05T01:15:19.727Z,129.73
2018-12-05T01:17:49.347Z,135.03
2018-12-05T01:20:18.750Z,181.63
2018-12-05T01:22:48.281Z,179.83
2018-12-05T01:25:17.747Z,151.27
2018-12-05T01:27:47.277Z,159.10
2018-12-05T01:30:16.690Z,138.30
2018-12-05T01:32:46.195Z,168.03
2018-12-05T01:35:15.558Z,138.53
2018-12-05T01:37:45.179Z,176.87
2018-12-05T01:40:14.692Z,229.60
2018-12-05T01:42:44.128Z,205.07
2018-12-05T01:45:13.640Z,144.33
2018-12-05T01:47:43.189Z,157.07
2018-12-05T01:50:12.731Z,139.30
2018-12-05T01:52:42.146Z,130.00
2018-12-05T01:55:11.532Z,168.43
2018-12-05T01:57:41.104Z,121.83
2018-12-05T02:00:10.776Z,192.23
2018-12-05T02:02:40.153Z,121.93
2018-12-05T02:05:09.618Z,94.37
2018-12-05T02:07:39.213Z,137.30
2018-12-05T02:10:08.723Z,113.97
2018-12-05T02:12:38.174Z,110.03
2018-12-05T02:15:07.796Z,101.03
2018-12-05T02:17:37.198Z,118.93
2018-12-05T02:20:06.952Z,114.67
2018-12-05T02:22:36.477Z,117.60
2018-12-05T02:25:06.526Z,116.37
2018-12-05T02:27:35.987Z,203.07
2018-12-05T02:30:06.144Z,194.43
2018-12-05T02:32:35.549Z,117.77
2018-12-05T02:35:06.333Z,120.67
2018-12-05T02:37:35.832Z,123.30
2018-12-05T02:40:06.425Z,132.40
2018-12-05T02:42:35.888Z,175.10
2018-12-05T02:45:05.532Z,139.93
2018-12-05T02:47:34.982Z,150.43
2018-12-05T02:50:04.837Z,178.30
2018-12-05T02:52:34.284Z,259.60
2018-12-05T02:55:04.300Z,190.97
2018-12-05T02:57:34.120Z,217.80
2018-12-05T03:00:04.072Z,204.87
2018-12-05T03:02:33.585Z,149.67
2018-12-05T03:05:03.216Z,141.57
2018-12-05T03:07:32.650Z,153.23
2018-12-05T03:10:02.182Z,148.70
2018-12-05T03:12:31.676Z,145.20
2018-12-05T03:15:01.195Z,160.70
2018-12-05T03:17:30.561Z,160.87
2018-12-05T03:20:00.075Z,278.27
2018-12-05T03:22:29.580Z,171.23
2018-12-05T03:24:59.034Z,270.90
2018-12-05T03:27:29.344Z,167.53
2018-12-05T03:30:02.359Z,127.70
2018-12-05T03:32:32.007Z,122.47
2018-12-05T03:35:01.640Z,112.43
2018-12-05T03:37:31.038Z,124.40
2018-12-05T03:40:00.573Z,94.43
2018-12-05T03:42:30.036Z,112.30
2018-12-05T03:44:59.520Z,95.13
2018-12-05T03:47:29.043Z,152.17
2018-12-05T03:50:02.744Z,146.57
2018-12-05T03:52:32.725Z,136.33
2018-12-05T03:55:02.301Z,118.43
2018-12-05T03:57:31.856Z,100.20
2018-12-05T04:00:01.298Z,96.00
2018-12-05T04:02:30.796Z,129.17
2018-12-05T04:05:00.572Z,109.47
2018-12-05T04:07:30.154Z,108.17
2018-12-05T04:09:59.639Z,109.27
2018-12-05T04:12:29.150Z,105.97
2018-12-05T04:14:58.691Z,96.97
2018-12-05T04:17:28.328Z,81.73
2018-12-05T04:19:57.855Z,89.13
2018-12-05T04:22:27.370Z,80.33
2018-12-05T04:24:56.923Z,132.47
2018-12-05T04:27:27.318Z,89.87
2018-12-05T04:29:56.852Z,169.80
2018-12-05T04:32:26.391Z,173.73
2018-12-05T04:34:56.508Z,210.63
2018-12-05T04:37:25.916Z,95.90
2018-12-05T04:39:56.167Z,106.37
2018-12-05T04:42:25.738Z,194.53
2018-12-05T04:44:55.254Z,197.73
2018-12-05T04:47:24.813Z,190.70
2018-12-05T04:49:54.331Z,166.67
2018-12-05T04:52:23.860Z,133.73
2018-12-05T04:54:53.308Z,170.57
2018-12-05T04:57:22.893Z,121.23
2018-12-05T04:59:52.436Z,126.17
2018-12-05T05:02:21.980Z,119.23
2018-12-05T05:04:51.431Z,132.83
2018-12-05T05:07:21.004Z,131.93
2018-12-05T05:09:50.483Z,112.90
2018-12-05T05:12:19.915Z,102.00
2018-12-05T05:14:49.303Z,117.83
2018-12-05T05:17:18.634Z,104.13
2018-12-05T05:19:48.270Z,100.73
2018-12-05T05:22:17.872Z,80.20
2018-12-05T05:24:47.322Z,71.53
2018-12-05T05:27:16.723Z,71.13
2018-12-05T05:29:46.241Z,64.40
2018-12-05T05:32:15.807Z,59.93
2018-12-05T05:34:45.303Z,56.03
2018-12-05T05:37:14.927Z,52.97
2018-12-05T05:39:44.508Z,52.10
2018-12-05T05:42:13.948Z,46.47
2018-12-05T05:44:43.355Z,49.47
2018-12-05T05:47:12.737Z,48.77
2018-12-05T05:49:42.282Z,42.57
2018-12-05T05:52:11.723Z,47.30
2018-12-05T05:54:41.429Z,42.03
2018-12-05T05:57:11.146Z,39.60
2018-12-05T05:59:40.931Z,46.03
2018-12-05T06:02:10.582Z,51.47
2018-12-05T06:04:40.254Z,48.27
2018-12-05T06:07:09.881Z,53.50
2018-12-05T06:09:39.488Z,42.83
2018-12-05T06:12:08.928Z,50.27
2018-12-05T06:14:38.559Z,51.13
2018-12-05T06:17:08.111Z,63.47
2018-12-05T06:19:37.623Z,57.37
2018-12-05T06:22:07.069Z,49.20
2018-12-05T06:24:36.460Z,41.70
2018-12-05T06:27:06.123Z,43.90
2018-12-05T06:29:35.619Z,46.63
2018-12-05T06:32:05.058Z,46.03
2018-12-05T06:34:34.587Z,46.27
2018-12-05T06:37:03.902Z,49.70
2018-12-05T06:39:33.485Z,56.57
2018-12-05T06:42:02.987Z,50.57
2018-12-05T06:44:32.470Z,51.90
2018-12-05T06:47:02.081Z,54.23
2018-12-05T06:49:31.685Z,49.73
2018-12-05T06:52:01.224Z,64.23
2018-12-05T06:54:30.728Z,44.37
2018-12-05T06:57:00.055Z,45.83
2018-12-05T06:59:29.600Z,53.40
2018-12-05T07:01:59.098Z,47.33
2018-12-05T07:04:28.504Z,47.27
2018-12-05T07:06:58.029Z,45.53
2018-12-05T07:09:27.484Z,43.77
2018-12-05T07:17:51.143Z,52.43
2018-12-05T07:20:20.797Z,51.00
2018-12-05T07:23:12.495Z,55.17
2018-12-05T07:25:42.233Z,57.87
2018-12-05T07:28:11.886Z,55.93
2018-12-05T07:30:41.532Z,64.03
2018-12-05T07:33:11.150Z,70.60
2018-12-05T07:35:40.811Z,54.90
2018-12-05T07:38:10.527Z,69.00
2018-12-05T07:40:40.150Z,48.53
2018-12-05T07:43:09.961Z,48.70
2018-12-05T07:45:39.581Z,54.30
2018-12-05T07:48:09.208Z,47.83
2018-12-05T07:50:38.694Z,57.90
2018-12-05T07:53:08.574Z,42.13
2018-12-05T07:55:38.148Z,48.23
2018-12-05T07:58:07.786Z,66.77
2018-12-05T08:00:37.441Z,51.90
2018-12-05T08:03:07.053Z,50.73
2018-12-05T08:05:36.701Z,48.90
2018-12-05T08:08:06.416Z,47.50
2018-12-05T08:10:36.071Z,55.33
2018-12-05T08:13:05.783Z,48.03
2018-12-05T08:15:35.545Z,49.30
2018-12-05T08:18:05.462Z,53.63
2018-12-05T08:20:35.088Z,49.63
2018-12-05T08:23:04.717Z,58.57
2018-12-05T08:25:34.330Z,48.00
2018-12-05T08:28:04.175Z,49.10
2018-12-05T08:30:33.901Z,55.10
2018-12-05T08:33:03.552Z,57.40
2018-12-05T08:35:33.180Z,61.03
2018-12-05T08:38:02.930Z,62.60
2018-12-05T08:40:32.626Z,71.60
2018-12-05T08:43:02.358Z,68.73
2018-12-05T08:45:32.181Z,72.33
2018-12-05T08:48:01.898Z,55.40
2018-12-05T08:50:31.491Z,56.83
2018-12-05T08:53:01.131Z,50.13
2018-12-05T08:55:30.837Z,42.33
2018-12-05T08:58:00.501Z,45.50
2018-12-05T09:00:30.270Z,40.13
2018-12-05T09:02:59.917Z,37.03
2018-12-05T09:05:29.531Z,37.30
2018-12-05T09:07:59.285Z,37.60
2018-12-05T09:10:28.877Z,37.13
2018-12-05T09:12:58.521Z,37.37
2018-12-05T09:15:28.226Z,35.37
2018-12-05T09:17:57.863Z,38.13
2018-12-05T09:20:27.577Z,34.97
2018-12-05T09:22:57.721Z,38.70
2018-12-05T09:25:27.621Z,37.57
2018-12-05T09:27:57.444Z,34.80
2018-12-05T09:30:27.085Z,36.73
2018-12-05T09:32:56.797Z,35.37
2018-12-05T09:35:26.574Z,35.57
2018-12-05T09:37:56.144Z,35.43
2018-12-05T09:40:25.801Z,36.03
2018-12-05T09:42:55.473Z,30.50
2018-12-05T09:45:25.125Z,27.73
2018-12-05T09:47:54.822Z,32.30
2018-12-05T09:50:24.526Z,32.53
2018-12-05T09:52:54.249Z,34.40
2018-12-05T09:55:23.832Z,31.87
2018-12-05T09:57:53.630Z,29.53
2018-12-05T10:00:23.195Z,30.67
2018-12-05T10:02:52.790Z,30.77
2018-12-05T10:05:22.541Z,29.87
2018-12-05T10:07:52.197Z,30.70
2018-12-05T10:10:21.897Z,31.53
2018-12-05T10:12:51.514Z,30.90
2018-12-05T10:15:21.232Z,31.40
2018-12-05T10:17:50.844Z,31.93
2018-12-05T10:20:20.705Z,30.67
2018-12-05T10:22:50.229Z,30.63
2018-12-05T10:25:19.815Z,29.33
2018-12-05T10:27:49.580Z,31.70
2018-12-05T10:30:19.256Z,29.83
2018-12-05T10:32:48.886Z,28.90
2018-12-05T10:35:18.588Z,27.03
2018-12-05T10:37:48.274Z,27.67
2018-12-05T10:40:17.894Z,30.07
2018-12-05T10:42:47.527Z,30.13
2018-12-05T10:45:18.856Z,29.97
2018-12-05T10:47:48.577Z,28.07
2018-12-05T10:50:18.250Z,27.70
2018-12-05T10:52:47.893Z,26.60
2018-12-05T10:55:17.582Z,26.93
2018-12-05T10:57:47.209Z,26.83
2018-12-05T11:00:23.140Z,24.87
2018-12-05T11:02:58.112Z,24.77
2018-12-05T11:05:32.965Z,24.77
2018-12-05T11:08:07.597Z,26.03
2018-12-05T11:10:42.209Z,23.60
2018-12-05T11:13:16.950Z,27.20
2018-12-05T11:15:52.777Z,26.67
2018-12-05T11:18:27.582Z,24.63
2018-12-05T11:22:05.364Z,25.03
2018-12-05T11:24:37.272Z,25.77
2018-12-05T11:27:07.078Z,27.07
2018-12-05T11:29:36.675Z,25.97
2018-12-05T11:32:06.483Z,25.83
2018-12-05T11:34:36.241Z,24.90
2018-12-05T11:37:05.890Z,28.97
2018-12-05T11:39:35.683Z,30.60
2018-12-05T11:42:05.345Z,31.83
2018-12-05T11:44:34.976Z,31.73
2018-12-05T11:47:04.609Z,29.67
2018-12-05T11:49:34.238Z,30.90
2018-12-05T11:52:03.849Z,31.53
2018-12-05T11:54:33.449Z,32.40
2018-12-05T11:57:03.177Z,35.73
2018-12-05T11:59:32.871Z,34.80
2018-12-05T12:02:02.462Z,41.03
2018-12-05T12:04:32.085Z,33.67
2018-12-05T12:07:02.197Z,33.43
2018-12-05T12:09:32.027Z,34.83
2018-12-05T12:12:01.749Z,38.30
2018-12-05T12:14:31.416Z,40.83
2018-12-05T12:17:01.332Z,40.83
2018-12-05T12:19:30.977Z,38.10
2018-12-05T12:22:00.645Z,40.33
2018-12-05T12:24:34.800Z,39.50
2018-12-05T12:27:02.006Z,43.97
2018-12-05T12:29:31.641Z,43.57
2018-12-05T12:32:01.346Z,48.20
2018-12-05T12:34:31.151Z,56.30
2018-12-05T12:37:00.801Z,55.17
2018-12-05T12:39:30.447Z,50.70
2018-12-05T12:42:00.073Z,51.37
2018-12-05T12:44:29.797Z,48.07
2018-12-05T12:46:59.883Z,45.47
2018-12-05T12:49:29.674Z,48.63
2018-12-05T12:51:59.226Z,51.77
2018-12-05T12:54:29.092Z,51.77
2018-12-05T12:56:58.852Z,57.80
2018-12-05T12:59:28.532Z,52.30
2018-12-05T13:01:58.021Z,53.60
2018-12-05T13:04:27.617Z,50.27
2018-12-05T13:06:57.169Z,51.53
2018-12-05T13:09:26.860Z,49.10
2018-12-05T13:11:56.649Z,49.50
2018-12-05T13:14:26.204Z,50.73
2018-12-05T13:16:55.753Z,51.13
2018-12-05T13:19:25.463Z,48.60
2018-12-05T13:21:55.356Z,52.47
2018-12-05T13:24:24.989Z,51.97
2018-12-05T13:26:54.629Z,49.17
2018-12-05T13:29:24.213Z,48.27
2018-12-05T13:31:53.730Z,47.77
2018-12-05T13:34:23.522Z,48.17
2018-12-05T13:36:53.272Z,50.00
2018-12-05T13:39:22.969Z,49.20
2018-12-05T13:41:52.684Z,49.33
2018-12-05T13:44:22.321Z,52.10
2018-12-05T13:46:51.972Z,50.83
2018-12-05T13:49:21.713Z,48.53
2018-12-05T13:51:51.415Z,50.33
2018-12-05T13:54:20.989Z,46.57
2018-12-05T13:56:50.542Z,48.93
2018-12-05T13:59:22.250Z,53.90
2018-12-05T14:01:51.931Z,49.80
2018-12-05T14:04:21.590Z,49.63
2018-12-05T14:06:51.253Z,57.20
2018-12-05T14:09:21.366Z,55.97
2018-12-05T14:11:51.373Z,54.23
2018-12-05T14:14:21.566Z,52.30
2018-12-05T14:16:51.207Z,52.40
2018-12-05T14:19:20.870Z,53.77
2018-12-05T14:21:50.597Z,56.50
2018-12-05T14:24:20.341Z,57.90
2018-12-05T14:26:50.100Z,51.87
2018-12-05T14:29:19.690Z,48.03
2018-12-05T14:31:49.149Z,53.87
2018-12-05T14:34:18.817Z,52.67
2018-12-05T14:36:48.608Z,53.63
2018-12-05T14:39:18.259Z,56.37
2018-12-05T14:41:52.169Z,53.23
2018-12-05T14:44:22.040Z,57.73
2018-12-05T14:46:51.814Z,56.13
2018-12-05T14:49:21.453Z,54.23
2018-12-05T14:51:51.078Z,57.20
2018-12-05T14:54:20.721Z,53.67
2018-12-05T14:56:50.442Z,57.87
2018-12-05T14:59:19.984Z,57.87
2018-12-05T15:01:49.528Z,56.77
2018-12-05T15:04:19.178Z,58.77
2018-12-05T15:06:48.851Z,60.20
2018-12-05T15:09:18.553Z,61.90
2018-12-05T15:11:48.193Z,73.50
2018-12-05T15:14:17.963Z,66.77
2018-12-05T15:16:47.687Z,78.80
2018-12-05T15:19:17.261Z,75.03
2018-12-05T15:21:47.072Z,81.67
2018-12-05T15:24:16.623Z,69.70
2018-12-05T15:26:46.398Z,63.73
2018-12-05T15:29:16.018Z,63.07
2018-12-05T15:31:45.728Z,60.23
2018-12-05T15:34:15.578Z,67.33
2018-12-05T15:36:45.256Z,65.87
2018-12-05T15:39:14.977Z,61.60
2018-12-05T15:41:44.636Z,64.13
2018-12-05T15:44:14.344Z,58.87
2018-12-05T15:46:44.277Z,60.23
2018-12-05T15:49:13.852Z,58.20
2018-12-05T15:51:43.435Z,58.03
2018-12-05T15:54:13.241Z,70.87
2018-12-05T15:56:42.998Z,88.00
2018-12-05T15:59:12.546Z,67.53
2018-12-05T16:01:42.115Z,59.33
2018-12-05T16:04:11.910Z,65.53
2018-12-05T16:06:41.471Z,67.87
2018-12-05T16:09:11.150Z,71.10
2018-12-05T16:11:40.786Z,88.83
2018-12-05T16:14:10.483Z,54.47
2018-12-05T16:16:40.124Z,59.47
2018-12-05T16:19:10.210Z,85.30
2018-12-05T16:21:39.825Z,71.87
2018-12-05T16:24:09.400Z,77.43
2018-12-05T16:26:39.048Z,98.70
2018-12-05T16:29:08.746Z,74.60
2018-12-05T16:31:38.373Z,72.40
2018-12-05T16:34:08.228Z,83.90
2018-12-05T16:36:37.916Z,73.73
2018-12-05T16:39:10.985Z,68.43
2018-12-05T16:41:40.682Z,62.60
2018-12-05T16:44:13.033Z,64.40
2018-12-05T16:46:42.053Z,69.70
2018-12-05T16:49:11.672Z,62.33
2018-12-05T16:51:41.349Z,62.53
2018-12-05T16:54:11.646Z,63.87
2018-12-05T16:56:41.459Z,57.70
2018-12-05T16:59:11.102Z,62.40
2018-12-05T17:01:40.858Z,82.17
2018-12-05T17:04:10.505Z,77.70
2018-12-05T17:06:40.147Z,74.33
2018-12-05T17:09:09.784Z,70.77
2018-12-05T17:11:39.600Z,73.63
2018-12-05T17:14:09.108Z,74.27
2018-12-05T17:16:38.774Z,82.03
2018-12-05T17:19:08.555Z,84.93
2018-12-05T17:21:38.244Z,80.20
2018-12-05T17:24:07.869Z,74.90
2018-12-05T17:26:37.470Z,75.23
2018-12-05T17:29:07.301Z,70.53
2018-12-05T17:31:37.993Z,78.73
2018-12-05T17:34:07.753Z,78.87
2018-12-05T17:36:37.324Z,77.63
2018-12-05T17:39:09.149Z,71.40
2018-12-05T17:41:38.801Z,74.07
2018-12-05T17:44:08.686Z,71.87
2018-12-05T17:46:38.515Z,72.70
2018-12-05T17:49:08.310Z,67.97
2018-12-05T17:51:38.069Z,79.40
2018-12-05T17:54:14.587Z,87.13
2018-12-05T17:56:39.826Z,91.50
2018-12-05T17:59:09.606Z,71.23
2018-12-05T18:01:39.389Z,62.07
2018-12-05T18:04:09.013Z,81.63
2018-12-05T18:06:38.622Z,72.67
2018-12-05T18:09:11.143Z,68.10
2018-12-05T18:11:41.035Z,65.13
2018-12-05T18:14:10.798Z,71.97
2018-12-05T18:16:40.564Z,71.43
2018-12-05T18:19:10.449Z,77.50
2018-12-05T18:21:40.142Z,80.80
2018-12-05T18:24:10.056Z,75.00
2018-12-05T18:26:39.741Z,78.03
2018-12-05T18:29:09.495Z,78.37
2018-12-05T18:31:39.193Z,72.60
2018-12-05T18:34:08.717Z,74.23
2018-12-05T18:36:38.522Z,74.53
2018-12-05T18:39:09.177Z,69.30
2018-12-05T18:41:38.917Z,77.80
2018-12-05T18:44:08.584Z,73.23
2018-12-05T18:46:38.492Z,69.13
2018-12-05T18:49:08.237Z,72.97
2018-12-05T18:51:37.869Z,65.93
2018-12-05T18:54:09.305Z,67.60
2018-12-05T18:56:39.182Z,62.50
2018-12-05T18:59:08.974Z,63.13
2018-12-05T19:01:38.630Z,64.23
2018-12-05T19:04:08.498Z,65.43
2018-12-05T19:06:38.069Z,65.20
2018-12-05T19:09:09.073Z,66.33
2018-12-05T19:11:38.962Z,72.33
2018-12-05T19:14:13.698Z,72.10
2018-12-05T19:16:43.509Z,73.90
2018-12-05T19:19:13.235Z,75.53
2018-12-05T19:21:43.030Z,66.53
2018-12-05T19:24:12.736Z,132.43
2018-12-05T19:26:42.457Z,99.10
2018-12-05T19:29:12.092Z,165.67
2018-12-05T19:31:41.802Z,137.90
2018-12-05T19:34:11.406Z,160.60
2018-12-05T19:36:41.114Z,111.43
2018-12-05T19:39:10.879Z,121.50
2018-12-05T19:41:40.711Z,100.67
2018-12-05T19:44:10.709Z,109.90
2018-12-05T19:46:40.581Z,131.50
2018-12-05T19:49:10.725Z,123.57
2018-12-05T19:51:40.494Z,132.20
2018-12-05T19:54:10.260Z,177.40
2018-12-05T19:56:40.930Z,130.97
2018-12-05T19:59:11.444Z,88.13
2018-12-05T20:01:41.077Z,121.67
2018-12-05T20:04:10.790Z,114.73
2018-12-05T20:06:40.462Z,103.10
2018-12-05T20:09:10.353Z,87.27
2018-12-05T20:11:42.208Z,105.17
2018-12-05T20:14:16.453Z,107.30
2018-12-05T20:16:46.367Z,103.73
2018-12-05T20:19:16.084Z,87.27
2018-12-05T20:21:46.221Z,79.17
2018-12-05T20:24:16.462Z,77.47
2018-12-05T20:26:46.216Z,78.83
2018-12-05T20:29:16.626Z,77.53
2018-12-05T20:31:48.749Z,72.83
2018-12-05T20:34:18.966Z,74.90
2018-12-05T20:36:48.751Z,72.17
2018-12-05T20:39:25.698Z,73.30
2018-12-05T20:41:50.106Z,68.83
2018-12-05T20:44:19.697Z,64.47
2018-12-05T20:46:49.357Z,64.17
2018-12-05T20:49:19.125Z,59.87
2018-12-05T20:51:48.732Z,63.53
2018-12-05T20:54:18.458Z,58.23
2018-12-05T20:56:48.416Z,58.20
2018-12-05T20:59:18.081Z,60.07
2018-12-05T21:01:47.974Z,68.50
2018-12-05T21:04:17.627Z,67.60
2018-12-05T21:06:47.202Z,73.27
2018-12-05T21:09:17.091Z,71.77
2018-12-05T21:11:46.733Z,79.27
2018-12-05T21:14:16.621Z,83.13
2018-12-05T21:16:46.205Z,83.53
2018-12-05T21:19:15.858Z,74.33
2018-12-05T21:21:45.490Z,77.03
2018-12-05T21:24:15.412Z,73.77
2018-12-05T21:26:45.098Z,72.60
2018-12-05T21:29:14.720Z,75.17
2018-12-05T21:31:44.785Z,69.50
2018-12-05T21:34:14.497Z,71.07
2018-12-05T21:36:44.174Z,70.03
2018-12-05T21:39:13.821Z,64.60
2018-12-05T21:41:43.496Z,67.13
2018-12-05T21:44:13.076Z,69.90
2018-12-05T21:46:44.848Z,64.37
2018-12-05T21:49:14.617Z,68.33
2018-12-05T21:51:44.230Z,63.87
2018-12-05T21:54:14.066Z,66.40
2018-12-05T21:56:43.636Z,60.67
2018-12-05T21:59:13.283Z,61.97
2018-12-05T22:01:42.986Z,64.97
2018-12-05T22:04:12.570Z,60.07
2018-12-05T22:06:42.384Z,69.90
2018-12-05T22:09:12.614Z,61.20
2018-12-05T22:11:42.414Z,62.60
2018-12-05T22:14:12.637Z,64.63
2018-12-05T22:16:42.307Z,59.13
2018-12-05T22:19:11.965Z,64.53
2018-12-05T22:21:41.737Z,67.67
2018-12-05T22:24:11.385Z,64.43
2018-12-05T22:26:41.008Z,66.37
2018-12-05T22:29:10.658Z,70.47
2018-12-05T22:31:40.384Z,68.17
2018-12-05T22:34:10.035Z,63.87
2018-12-05T22:36:39.614Z,68.57
2018-12-05T22:39:10.962Z,68.47
2018-12-05T22:41:40.714Z,58.20
2018-12-05T22:44:10.357Z,63.03
2018-12-05T22:46:40.012Z,61.40
2018-12-05T22:49:09.796Z,60.03
2018-12-05T22:51:39.598Z,68.97
2018-12-05T22:54:09.240Z,66.77
2018-12-05T22:56:38.922Z,63.83
2018-12-05T22:59:08.703Z,70.73
2018-12-05T23:01:38.470Z,66.73
2018-12-05T23:04:08.245Z,66.33
2018-12-05T23:06:38.057Z,68.17
2018-12-05T23:09:07.924Z,66.90
2018-12-05T23:11:37.601Z,64.33
2018-12-05T23:14:07.297Z,63.53
2018-12-05T23:16:37.092Z,71.70
2018-12-05T23:19:06.844Z,64.80
2018-12-05T23:21:36.506Z,66.47
2018-12-05T23:24:06.147Z,64.83
2018-12-05T23:26:35.861Z,64.67
2018-12-05T23:29:05.837Z,68.37
2018-12-05T23:31:35.616Z,63.10
2018-12-05T23:34:05.360Z,62.93
2018-12-05T23:36:35.195Z,71.43
2018-12-05T23:39:07.401Z,63.30
2018-12-05T23:41:37.274Z,60.40
2018-12-05T23:44:06.906Z,63.47
2018-12-05T23:46:36.516Z,62.50
2018-12-05T23:49:06.119Z,64.83
2018-12-05T23:51:35.827Z,74.57
2018-12-05T23:54:05.618Z,71.10
2018-12-05T23:56:35.621Z,72.50
2018-12-05T23:59:05.547Z,69.10
